createdAt,value
2019-02-21T06:55:44.955Z,6.40
2019-02-21T06:56:44.932Z,6.36
2019-02-21T06:57:44.939Z,6.42
2019-02-21T06:58:44.944Z,6.42
2019-02-21T06:59:45.403Z,6.36
2019-02-21T07:00:46.222Z,6.43
2019-02-21T07:01:44.952Z,6.33
2019-02-21T07:02:44.956Z,6.28
2019-02-21T07:03:44.963Z,6.35
2019-02-21T07:04:44.966Z,6.39
2019-02-21T07:05:44.975Z,6.42
2019-02-21T07:06:44.973Z,6.42
2019-02-21T07:07:44.987Z,6.40
2019-02-21T07:08:44.979Z,6.39
2019-02-21T07:09:44.987Z,6.36
2019-02-21T07:10:44.987Z,6.42
2019-02-21T07:11:46.083Z,6.30
2019-02-21T07:12:44.996Z,6.39
2019-02-21T07:13:44.996Z,6.48
2019-02-21T07:14:45.005Z,6.40
2019-02-21T07:15:45.028Z,6.40
2019-02-21T07:16:45.008Z,6.46
2019-02-21T07:17:49.186Z,6.46
2019-02-21T07:18:45.018Z,6.50
2019-02-21T07:19:45.019Z,6.54
2019-02-21T07:20:45.022Z,6.46
2019-02-21T07:21:45.028Z,6.60
2019-02-21T07:22:45.034Z,6.54
2019-02-21T07:23:45.027Z,6.50
2019-02-21T07:24:45.032Z,6.60
2019-02-21T07:25:45.044Z,6.61
2019-02-21T07:26:45.051Z,6.63
2019-02-21T07:27:45.114Z,6.69
2019-02-21T07:28:45.056Z,6.65
2019-02-21T07:29:45.055Z,6.73
2019-02-21T07:30:45.062Z,6.78
2019-02-21T07:31:45.065Z,6.83
2019-02-21T07:32:45.077Z,6.90
2019-02-21T07:33:45.078Z,6.94
2019-02-21T07:34:45.078Z,6.86
2019-02-21T07:35:45.083Z,7.00
2019-02-21T07:36:45.090Z,6.96
2019-02-21T07:37:45.099Z,7.04
2019-02-21T07:38:45.089Z,7.04
2019-02-21T07:39:45.101Z,7.05
2019-02-21T07:40:45.102Z,7.14
2019-02-21T07:41:45.105Z,7.23
2019-02-21T07:42:45.125Z,7.24
2019-02-21T07:43:45.136Z,7.19
2019-02-21T07:44:45.463Z,7.32
2019-02-21T07:45:45.136Z,7.33
2019-02-21T07:46:46.314Z,7.34
2019-02-21T07:47:45.136Z,7.30
2019-02-21T07:48:45.139Z,7.37
2019-02-21T07:49:45.149Z,7.32
2019-02-21T07:50:45.159Z,7.45
2019-02-21T07:51:45.154Z,7.55
2019-02-21T07:52:45.168Z,7.50
2019-02-21T07:53:45.165Z,7.55
2019-02-21T07:54:45.164Z,7.62
2019-02-21T07:55:45.195Z,7.67
2019-02-21T07:56:45.181Z,7.77
2019-02-21T07:57:45.196Z,7.74
2019-02-21T07:58:45.208Z,7.88
2019-02-21T07:59:45.195Z,7.92
2019-02-21T08:00:45.203Z,7.88
2019-02-21T08:01:45.219Z,7.95
2019-02-21T08:02:45.213Z,7.91
2019-02-21T08:03:48.313Z,8.00
2019-02-21T08:04:45.226Z,8.07
2019-02-21T08:05:45.232Z,8.06
2019-02-21T08:06:45.233Z,8.17
2019-02-21T08:07:45.247Z,8.22
2019-02-21T08:08:45.246Z,8.36
2019-02-21T08:09:45.256Z,8.24
2019-02-21T08:10:45.269Z,8.25
2019-02-21T08:11:45.280Z,8.37
2019-02-21T08:12:45.283Z,8.24
2019-02-21T08:13:45.287Z,8.25
2019-02-21T08:14:45.312Z,8.24
2019-02-21T08:15:45.342Z,8.25
2019-02-21T08:16:45.316Z,8.18
2019-02-21T08:17:45.318Z,8.14
2019-02-21T08:18:45.321Z,8.22
2019-02-21T08:19:45.332Z,8.27
2019-02-21T08:20:45.339Z,8.34
2019-02-21T08:21:45.438Z,8.31
2019-02-21T08:22:45.359Z,8.31
2019-02-21T08:23:50.456Z,8.39
2019-02-21T08:24:45.362Z,8.37
2019-02-21T08:25:45.368Z,8.32
2019-02-21T08:26:45.376Z,8.39
2019-02-21T08:27:45.398Z,8.40
2019-02-21T08:28:45.382Z,8.36
2019-02-21T08:29:45.385Z,8.43
2019-02-21T08:30:45.402Z,8.37
2019-02-21T08:31:45.411Z,8.43
2019-02-21T08:32:45.413Z,8.52
2019-02-21T08:33:55.448Z,8.61
2019-02-21T08:34:48.057Z,8.64
2019-02-21T08:35:45.434Z,8.65
2019-02-21T08:36:45.435Z,8.65
2019-02-21T08:37:45.435Z,8.68
2019-02-21T08:38:45.446Z,8.82
2019-02-21T08:39:45.454Z,8.78
2019-02-21T08:40:45.459Z,8.73
2019-02-21T08:41:45.464Z,8.80
2019-02-21T08:42:45.482Z,8.85
2019-02-21T08:43:45.483Z,8.71
2019-02-21T08:44:45.481Z,8.82
2019-02-21T08:45:45.494Z,8.85
2019-02-21T08:46:45.508Z,8.86
2019-02-21T08:47:45.496Z,8.79
2019-02-21T08:48:47.726Z,8.86
2019-02-21T08:49:45.512Z,8.85
2019-02-21T08:50:45.518Z,8.88
2019-02-21T08:51:45.530Z,9.01
2019-02-21T08:52:45.535Z,9.06
2019-02-21T08:53:45.530Z,9.12
2019-02-21T08:54:45.540Z,9.15
2019-02-21T08:55:45.545Z,9.04
2019-02-21T08:56:45.554Z,9.10
2019-02-21T08:57:45.569Z,9.06
2019-02-21T08:58:45.598Z,9.13
2019-02-21T08:59:45.577Z,9.08
2019-02-21T09:00:45.580Z,9.06
2019-02-21T09:01:45.582Z,9.10
2019-02-21T09:02:45.600Z,9.12
2019-02-21T09:03:45.591Z,9.10
2019-02-21T09:04:45.607Z,9.01
2019-02-21T09:05:45.603Z,9.12
2019-02-21T09:06:45.612Z,9.20
2019-02-21T09:07:46.569Z,9.12
2019-02-21T09:08:45.625Z,9.20
2019-02-21T09:09:45.628Z,9.22
2019-02-21T09:10:45.629Z,9.19
2019-02-21T09:11:45.649Z,9.19
2019-02-21T09:12:48.465Z,9.17
2019-02-21T09:13:45.648Z,9.20
2019-02-21T09:14:45.663Z,9.17
2019-02-21T09:15:46.579Z,9.17
2019-02-21T09:16:45.672Z,9.22
2019-02-21T09:17:45.673Z,9.24
2019-02-21T09:18:45.686Z,9.23
2019-02-21T09:19:45.691Z,9.31
2019-02-21T09:20:47.722Z,9.20
2019-02-21T09:21:45.702Z,9.22
2019-02-21T09:22:45.721Z,9.24
2019-02-21T09:23:45.711Z,9.26
2019-02-21T09:24:45.712Z,9.23
2019-02-21T09:25:45.716Z,9.24
2019-02-21T09:26:45.738Z,9.23
2019-02-21T09:27:45.740Z,9.23
2019-02-21T09:28:45.740Z,9.27
2019-02-21T09:29:45.749Z,9.27
2019-02-21T09:30:45.785Z,9.27
2019-02-21T09:31:45.768Z,9.32
2019-02-21T09:32:45.774Z,9.37
2019-02-21T09:33:45.767Z,9.42
2019-02-21T09:34:45.778Z,9.44
2019-02-21T09:35:45.782Z,9.56
2019-02-21T09:36:45.788Z,9.62
2019-02-21T09:37:45.810Z,9.74
2019-02-21T09:38:45.839Z,9.60
2019-02-21T09:39:45.808Z,9.73
2019-02-21T09:40:45.829Z,9.77
2019-02-21T09:41:45.828Z,9.77
2019-02-21T09:42:45.819Z,9.75
2019-02-21T09:43:45.838Z,9.73
2019-02-21T09:44:45.837Z,9.75
2019-02-21T09:45:45.837Z,9.62
2019-02-21T09:46:45.853Z,9.68
2019-02-21T09:47:45.855Z,9.65
2019-02-21T09:48:45.859Z,9.71
2019-02-21T09:49:45.861Z,9.71
2019-02-21T09:50:45.882Z,9.83
2019-02-21T09:51:45.871Z,9.83
2019-02-21T09:52:45.885Z,9.85
2019-02-21T09:53:45.889Z,9.96
2019-02-21T09:54:47.522Z,10.10
2019-02-21T09:55:45.894Z,10.06
2019-02-21T09:56:52.927Z,10.11
2019-02-21T09:57:45.919Z,10.11
2019-02-21T09:58:46.093Z,10.17
2019-02-21T09:59:45.932Z,10.24
2019-02-21T10:00:45.932Z,10.34
2019-02-21T10:01:45.940Z,10.35
2019-02-21T10:02:45.952Z,10.34
2019-02-21T10:03:45.957Z,10.44
2019-02-21T10:04:45.959Z,10.49
2019-02-21T10:05:45.976Z,10.52
2019-02-21T10:06:45.974Z,10.46
2019-02-21T10:07:45.979Z,10.63
2019-02-21T10:08:45.989Z,10.54
2019-02-21T10:09:46.014Z,10.60
2019-02-21T10:10:46.001Z,10.34
2019-02-21T10:12:46.017Z,10.29
2019-02-21T10:13:46.033Z,10.28
2019-02-21T10:14:46.033Z,10.38
2019-02-21T10:15:47.131Z,10.36
2019-02-21T10:16:46.131Z,10.39
2019-02-21T10:17:46.061Z,10.44
2019-02-21T10:18:46.069Z,10.54
2019-02-21T10:19:46.071Z,10.49
2019-02-21T10:20:46.073Z,10.55
2019-02-21T10:21:46.088Z,10.65
2019-02-21T10:22:46.095Z,10.70
2019-02-21T10:23:46.101Z,10.83
2019-02-21T10:24:46.115Z,10.81
2019-02-21T10:25:46.111Z,10.87
2019-02-21T10:26:46.118Z,10.91
2019-02-21T10:27:46.129Z,11.01
2019-02-21T10:28:46.137Z,11.06
2019-02-21T10:29:46.140Z,11.19
2019-02-21T10:30:46.156Z,11.26
2019-02-21T10:31:46.162Z,11.33
2019-02-21T10:32:46.182Z,11.30
2019-02-21T10:33:47.294Z,11.30
2019-02-21T10:34:46.190Z,11.33
2019-02-21T10:35:46.193Z,11.36
2019-02-21T10:36:46.203Z,11.51
2019-02-21T10:37:46.203Z,11.30
2019-02-21T10:38:46.218Z,11.26
2019-02-21T10:39:47.900Z,11.35
2019-02-21T10:40:46.234Z,11.19
2019-02-21T10:41:46.241Z,11.21
2019-02-21T10:42:46.255Z,11.11
2019-02-21T10:43:46.259Z,11.21
2019-02-21T10:44:46.265Z,11.17
2019-02-21T10:45:48.158Z,11.06
2019-02-21T10:46:46.312Z,11.12
2019-02-21T10:47:46.297Z,11.13
2019-02-21T10:48:46.306Z,11.13
2019-02-21T10:49:46.307Z,11.13
2019-02-21T10:50:46.320Z,11.21
2019-02-21T10:51:46.318Z,11.16
2019-02-21T10:52:46.331Z,11.24
2019-02-21T10:53:46.340Z,11.19
2019-02-21T10:54:46.347Z,11.35
2019-02-21T10:55:48.073Z,11.30
2019-02-21T10:56:46.356Z,11.45
2019-02-21T10:57:46.365Z,11.53
2019-02-21T10:58:46.391Z,11.60
2019-02-21T10:59:47.127Z,11.66
2019-02-21T11:00:46.395Z,11.70
2019-02-21T11:01:46.401Z,11.66
2019-02-21T11:02:46.400Z,11.82
2019-02-21T11:03:46.424Z,11.88
2019-02-21T11:04:54.457Z,12.05
2019-02-21T11:05:46.430Z,12.04
2019-02-21T11:06:46.443Z,12.04
2019-02-21T11:07:46.444Z,11.93
2019-02-21T11:08:46.460Z,11.84
2019-02-21T11:09:46.467Z,11.90
2019-02-21T11:10:46.487Z,12.04
2019-02-21T11:11:46.483Z,12.13
2019-02-21T11:12:46.494Z,12.25
2019-02-21T11:13:46.503Z,12.23
2019-02-21T11:14:47.731Z,12.30
2019-02-21T11:15:46.528Z,12.16
2019-02-21T11:16:46.530Z,12.07
2019-02-21T11:17:46.558Z,12.04
2019-02-21T11:18:46.541Z,11.98
2019-02-21T11:19:46.556Z,11.94
2019-02-21T11:20:46.584Z,12.04
2019-02-21T11:21:46.567Z,12.04
2019-02-21T11:22:46.583Z,12.23
2019-02-21T11:23:46.586Z,12.34
2019-02-21T11:24:46.600Z,12.34
2019-02-21T11:25:46.604Z,12.51
2019-02-21T11:26:46.619Z,12.54
2019-02-21T11:27:46.618Z,12.55
2019-02-21T11:28:47.388Z,12.55
2019-02-21T11:29:46.641Z,12.51
2019-02-21T11:30:46.644Z,12.55
2019-02-21T11:31:46.656Z,12.52
2019-02-21T11:32:46.663Z,12.36
2019-02-21T11:33:46.669Z,12.40
2019-02-21T11:34:46.679Z,12.31
2019-02-21T11:35:46.697Z,12.19
2019-02-21T11:36:46.705Z,12.21
2019-02-21T11:37:47.505Z,12.07
2019-02-21T11:38:46.708Z,12.07
2019-02-21T11:39:46.725Z,11.88
2019-02-21T11:40:46.734Z,11.85
2019-02-21T11:41:46.782Z,11.88
2019-02-21T11:42:46.746Z,11.78
2019-02-21T11:43:46.755Z,11.81
2019-02-21T11:44:46.768Z,11.77
2019-02-21T11:45:53.937Z,11.79
2019-02-21T11:46:46.777Z,11.77
2019-02-21T11:47:46.788Z,11.72
2019-02-21T11:48:46.819Z,11.75
2019-02-21T11:49:46.801Z,11.84
2019-02-21T11:50:46.806Z,11.79
2019-02-21T11:51:46.819Z,11.78
2019-02-21T11:52:46.823Z,11.85
2019-02-21T11:53:46.828Z,12.12
2019-02-21T11:54:46.836Z,12.26
2019-02-21T11:55:46.853Z,12.58
2019-02-21T11:56:46.865Z,12.95
2019-02-21T11:57:46.860Z,13.88
2019-02-21T11:58:46.865Z,14.20
2019-02-21T11:59:46.881Z,14.53
2019-02-21T12:00:46.890Z,14.79
2019-02-21T12:01:46.894Z,15.43
2019-02-21T12:02:46.909Z,15.93
2019-02-21T12:03:46.935Z,15.53
2019-02-21T12:04:46.935Z,15.85
2019-02-21T12:05:46.948Z,15.86
2019-02-21T12:06:47.753Z,15.31
2019-02-21T12:07:46.967Z,14.75
2019-02-21T12:08:46.982Z,14.24
2019-02-21T12:09:46.987Z,13.94
2019-02-21T12:10:47.002Z,13.98
2019-02-21T12:11:47.032Z,13.73
2019-02-21T12:12:47.034Z,13.84
2019-02-21T12:13:47.038Z,14.09
2019-02-21T12:14:47.050Z,14.08
2019-02-21T12:15:47.062Z,14.08
2019-02-21T12:16:47.083Z,13.71
2019-02-21T12:17:47.080Z,13.57
2019-02-21T12:18:47.099Z,13.63
2019-02-21T12:19:47.106Z,13.76
2019-02-21T12:20:47.123Z,14.08
2019-02-21T12:21:58.432Z,14.04
2019-02-21T12:22:47.138Z,13.94
2019-02-21T12:23:47.150Z,13.81
2019-02-21T12:24:47.157Z,13.79
2019-02-21T12:25:47.165Z,13.79
2019-02-21T12:26:47.174Z,13.84
2019-02-21T12:27:47.190Z,13.88
2019-02-21T12:28:47.217Z,13.80
2019-02-21T12:29:47.213Z,13.83
2019-02-21T12:30:47.227Z,13.73
2019-02-21T12:31:47.240Z,13.76
2019-02-21T12:32:47.250Z,13.54
2019-02-21T12:33:47.260Z,13.54
2019-02-21T12:34:47.253Z,13.47
2019-02-21T12:35:47.269Z,13.38
2019-02-21T12:36:47.283Z,13.51
2019-02-21T12:37:47.292Z,13.46
2019-02-21T12:38:47.302Z,13.46
2019-02-21T12:39:47.307Z,13.43
2019-02-21T12:40:47.322Z,13.29
2019-02-21T12:41:47.336Z,13.39
2019-02-21T12:42:47.338Z,13.46
2019-02-21T12:43:47.352Z,13.48
2019-02-21T12:44:47.954Z,13.57
2019-02-21T12:45:47.367Z,13.55
2019-02-21T12:46:47.373Z,13.59
2019-02-21T12:47:52.946Z,13.57
2019-02-21T12:48:47.395Z,13.68
2019-02-21T12:49:47.414Z,13.73
2019-02-21T12:50:47.411Z,13.73
2019-02-21T12:51:47.425Z,13.80
2019-02-21T12:52:47.431Z,13.69
2019-02-21T12:53:47.444Z,13.68
2019-02-21T12:54:47.459Z,13.54
2019-02-21T12:55:47.458Z,13.57
2019-02-21T12:56:47.467Z,13.53
2019-02-21T12:57:47.478Z,13.65
2019-02-21T12:58:47.493Z,13.69
2019-02-21T12:59:47.492Z,13.87
2019-02-21T13:00:47.516Z,13.86
2019-02-21T13:01:47.512Z,13.93
2019-02-21T13:02:47.522Z,13.84
2019-02-21T13:03:47.533Z,13.90
2019-02-21T13:04:47.547Z,13.93
2019-02-21T13:05:47.548Z,13.96
2019-02-21T13:06:47.566Z,13.84
2019-02-21T13:07:47.566Z,13.93
2019-02-21T13:08:47.577Z,13.96
2019-02-21T13:09:47.592Z,13.79
2019-02-21T13:10:47.598Z,13.81
2019-02-21T13:11:47.607Z,13.83
2019-02-21T13:12:47.611Z,13.94
2019-02-21T13:13:47.622Z,13.76
2019-02-21T13:14:47.636Z,13.79
2019-02-21T13:15:47.651Z,13.76
2019-02-21T13:16:47.651Z,13.73
2019-02-21T13:17:47.669Z,13.75
2019-02-21T13:18:47.673Z,13.69
2019-02-21T13:19:47.677Z,13.80
2019-02-21T13:20:47.693Z,13.91
2019-02-21T13:21:47.696Z,13.90
2019-02-21T13:22:47.705Z,13.93
2019-02-21T13:23:47.719Z,13.86
2019-02-21T13:24:47.728Z,13.81
2019-02-21T13:25:47.733Z,13.73
2019-02-21T13:26:47.743Z,13.54
2019-02-21T13:27:47.749Z,13.53
2019-02-21T13:28:47.761Z,13.50
2019-02-21T13:29:47.764Z,13.55
2019-02-21T13:30:47.784Z,13.54
2019-02-21T13:31:47.795Z,13.65
2019-02-21T13:32:47.800Z,13.50
2019-02-21T13:33:47.818Z,13.62
2019-02-21T13:34:47.818Z,13.65
2019-02-21T13:35:52.801Z,13.46
2019-02-21T13:36:47.844Z,13.44
2019-02-21T13:37:47.841Z,13.47
2019-02-21T13:38:47.850Z,13.51
2019-02-21T13:39:47.851Z,13.46
2019-02-21T13:40:49.627Z,13.51
2019-02-21T13:41:47.877Z,13.46
2019-02-21T13:42:47.881Z,13.43
2019-02-21T13:43:47.895Z,13.38
2019-02-21T13:44:47.896Z,13.31
2019-02-21T13:45:47.909Z,13.38
2019-02-21T13:46:47.918Z,13.35
2019-02-21T13:47:47.924Z,13.32
2019-02-21T13:48:47.933Z,13.36
2019-02-21T13:49:47.945Z,13.35
2019-02-21T13:50:47.946Z,13.16
2019-02-21T13:51:47.966Z,13.17
2019-02-21T13:52:47.956Z,13.22
2019-02-21T13:53:47.993Z,13.21
2019-02-21T13:54:47.997Z,13.22
2019-02-21T13:55:50.842Z,13.25
2019-02-21T13:56:48.000Z,13.19
2019-02-21T13:57:48.009Z,13.28
2019-02-21T13:58:48.011Z,13.22
2019-02-21T13:59:48.022Z,13.21
2019-02-21T14:00:48.031Z,13.21
2019-02-21T14:01:48.041Z,13.19
2019-02-21T14:02:48.050Z,13.25
2019-02-21T14:03:48.055Z,13.21
2019-02-21T14:04:48.063Z,13.25
2019-02-21T14:05:48.076Z,13.32
2019-02-21T14:06:48.092Z,13.38
2019-02-21T14:07:48.099Z,13.32
2019-02-21T14:08:48.096Z,13.38
2019-02-21T14:09:48.111Z,13.44
2019-02-21T14:10:48.127Z,13.46
2019-02-21T14:11:48.139Z,13.48
2019-02-21T14:12:48.154Z,13.46
2019-02-21T14:13:48.125Z,13.38
2019-02-21T14:14:48.147Z,13.35
2019-02-21T14:15:48.147Z,13.35
2019-02-21T14:16:48.164Z,13.25
2019-02-21T14:17:48.170Z,13.25
2019-02-21T14:18:48.181Z,13.22
2019-02-21T14:19:48.189Z,13.21
2019-02-21T14:20:48.286Z,13.19
2019-02-21T14:21:48.266Z,13.21
2019-02-21T14:22:48.202Z,13.36
2019-02-21T14:23:48.223Z,13.31
2019-02-21T14:24:48.228Z,13.38
2019-02-21T14:25:48.238Z,13.38
2019-02-21T14:26:48.250Z,13.36
2019-02-21T14:27:48.249Z,13.46
2019-02-21T14:28:48.262Z,13.36
2019-02-21T14:29:48.263Z,13.35
2019-02-21T14:30:48.287Z,13.44
2019-02-21T14:31:48.292Z,13.29
2019-02-21T14:32:48.290Z,13.35
2019-02-21T14:33:48.302Z,13.41
2019-02-21T14:34:48.322Z,13.38
2019-02-21T14:35:48.313Z,13.41
2019-02-21T14:36:48.316Z,13.38
2019-02-21T14:37:48.343Z,13.35
2019-02-21T14:38:48.355Z,13.36
2019-02-21T14:39:48.348Z,13.38
2019-02-21T14:40:48.356Z,13.38
2019-02-21T14:41:48.369Z,13.25
2019-02-21T14:42:48.369Z,13.32
2019-02-21T14:43:48.384Z,13.25
2019-02-21T14:44:49.550Z,13.27
2019-02-21T14:45:48.391Z,13.32
2019-02-21T14:46:50.280Z,13.36
2019-02-21T14:47:48.410Z,13.22
2019-02-21T14:48:48.428Z,13.22
2019-02-21T14:49:48.423Z,13.25
2019-02-21T14:50:48.437Z,13.36
2019-02-21T14:51:48.441Z,13.29
2019-02-21T14:52:48.515Z,13.35
2019-02-21T14:53:48.459Z,13.38
2019-02-21T14:54:48.470Z,13.50
2019-02-21T14:55:48.475Z,13.50
2019-02-21T14:56:48.490Z,13.50
2019-02-21T14:57:48.487Z,13.47
2019-02-21T14:58:48.496Z,13.47
2019-02-21T14:59:48.519Z,13.44
2019-02-21T15:00:48.528Z,13.44
2019-02-21T15:01:48.516Z,13.43
2019-02-21T15:02:48.544Z,13.43
2019-02-21T15:03:48.539Z,13.44
2019-02-21T15:04:48.546Z,13.38
2019-02-21T15:05:48.565Z,13.38
2019-02-21T15:06:48.567Z,13.38
2019-02-21T15:07:48.579Z,13.29
2019-02-21T15:08:48.589Z,13.36
2019-02-21T15:09:48.585Z,13.41
2019-02-21T15:10:48.595Z,13.25
2019-02-21T15:11:48.600Z,13.32
2019-02-21T15:12:48.616Z,13.41
2019-02-21T15:13:48.618Z,13.39
2019-02-21T15:14:48.636Z,13.36
2019-02-21T15:15:48.624Z,13.35
2019-02-21T15:16:48.648Z,13.32
2019-02-21T15:17:48.652Z,13.38
2019-02-21T15:18:48.661Z,13.38
2019-02-21T15:19:48.672Z,13.41
2019-02-21T15:20:48.686Z,13.32
2019-02-21T15:21:48.695Z,13.35
2019-02-21T15:22:48.694Z,13.16
2019-02-21T15:23:48.709Z,13.29
2019-02-21T15:24:48.714Z,13.22
2019-02-21T15:25:48.729Z,13.24
2019-02-21T15:26:48.728Z,13.24
2019-02-21T15:27:48.721Z,13.27
2019-02-21T15:28:48.738Z,13.17
2019-02-21T15:29:48.742Z,13.21
2019-02-21T15:30:48.754Z,13.27
2019-02-21T15:31:48.761Z,13.32
2019-02-21T15:32:48.768Z,13.32
2019-02-21T15:33:48.777Z,13.39
2019-02-21T15:34:48.785Z,13.28
2019-02-21T15:35:48.805Z,13.21
2019-02-21T15:36:48.803Z,13.04
2019-02-21T15:37:48.807Z,13.06
2019-02-21T15:38:48.926Z,13.06
2019-02-21T15:39:48.830Z,13.01
2019-02-21T15:40:48.841Z,13.04
2019-02-21T15:41:48.840Z,12.99
2019-02-21T15:42:48.850Z,12.99
2019-02-21T15:43:48.853Z,13.04
2019-02-21T15:44:48.889Z,12.95
2019-02-21T15:45:48.866Z,13.06
2019-02-21T15:46:48.891Z,13.06
2019-02-21T15:47:48.889Z,13.06
2019-02-21T15:48:48.977Z,12.95
2019-02-21T15:49:48.905Z,12.96
2019-02-21T15:50:48.914Z,12.94
2019-02-21T15:51:48.914Z,12.94
2019-02-21T15:52:48.926Z,12.98
2019-02-21T15:53:48.934Z,12.94
2019-02-21T15:54:48.947Z,12.96
2019-02-21T15:55:48.954Z,12.91
2019-02-21T15:56:48.962Z,12.94
2019-02-21T15:57:48.961Z,12.94
2019-02-21T15:58:48.969Z,12.85
2019-02-21T15:59:48.981Z,12.87
2019-02-21T16:00:48.976Z,12.87
2019-02-21T16:01:48.992Z,12.88
2019-02-21T16:02:48.996Z,12.88
2019-02-21T16:03:49.021Z,12.85
2019-02-21T16:04:49.013Z,12.76
2019-02-21T16:05:49.020Z,12.73
2019-02-21T16:06:51.843Z,12.70
2019-02-21T16:07:49.047Z,12.66
2019-02-21T16:08:49.045Z,12.66
2019-02-21T16:09:49.065Z,12.59
2019-02-21T16:10:49.057Z,12.55
2019-02-21T16:11:49.073Z,12.54
2019-02-21T16:12:49.639Z,12.54
2019-02-21T16:13:51.285Z,12.44
2019-02-21T16:14:49.083Z,12.49
2019-02-21T16:15:49.098Z,12.44
2019-02-21T16:16:49.106Z,12.51
2019-02-21T16:17:49.109Z,12.48
2019-02-21T16:18:49.117Z,12.43
2019-02-21T16:19:49.145Z,12.49
2019-02-21T16:20:49.123Z,12.55
2019-02-21T16:21:49.151Z,12.51
2019-02-21T16:22:49.144Z,12.49
2019-02-21T16:23:49.157Z,12.49
2019-02-21T16:24:49.152Z,12.49
2019-02-21T16:25:49.164Z,12.43
2019-02-21T16:26:49.158Z,12.56
2019-02-21T16:27:49.165Z,12.46
2019-02-21T16:28:49.184Z,12.40
2019-02-21T16:29:49.189Z,12.43
2019-02-21T16:30:49.196Z,12.38
2019-02-21T16:31:49.209Z,12.38
2019-02-21T16:32:49.211Z,12.44
2019-02-21T16:33:49.224Z,12.40
2019-02-21T16:34:49.221Z,12.43
2019-02-21T16:35:49.233Z,12.44
2019-02-21T16:36:49.242Z,12.44
2019-02-21T16:37:49.248Z,12.41
2019-02-21T16:38:49.250Z,12.37
2019-02-21T16:39:49.267Z,12.29
2019-02-21T16:40:49.344Z,12.34
2019-02-21T16:41:49.283Z,12.26
2019-02-21T16:42:49.277Z,12.26
2019-02-21T16:43:49.291Z,12.29
2019-02-21T16:44:49.300Z,12.29
2019-02-21T16:45:53.759Z,12.26
2019-02-21T16:46:49.312Z,12.29
2019-02-21T16:47:49.320Z,12.29
2019-02-21T16:48:49.334Z,12.25
2019-02-21T16:49:49.334Z,12.29
2019-02-21T16:50:49.331Z,12.31
2019-02-21T16:51:49.343Z,12.29
2019-02-21T16:52:49.357Z,12.30
2019-02-21T16:53:49.354Z,12.21
2019-02-21T16:54:49.370Z,12.31
2019-02-21T16:55:49.374Z,12.29
2019-02-21T16:56:49.376Z,12.33
2019-02-21T16:57:49.390Z,12.40
2019-02-21T16:58:49.397Z,12.38
2019-02-21T16:59:49.401Z,12.38
2019-02-21T17:00:54.704Z,12.31
2019-02-21T17:01:49.410Z,12.34
2019-02-21T17:02:49.419Z,12.41
2019-02-21T17:03:49.425Z,12.37
2019-02-21T17:04:49.442Z,12.34
2019-02-21T17:05:49.442Z,12.31
2019-02-21T17:06:49.521Z,12.34
2019-02-21T17:07:49.451Z,12.31
2019-02-21T17:08:49.459Z,12.41
2019-02-21T17:09:49.461Z,12.37
2019-02-21T17:10:49.468Z,12.31
2019-02-21T17:11:49.477Z,12.29
2019-02-21T17:13:49.492Z,12.30
2019-02-21T17:14:49.498Z,12.33
2019-02-21T17:15:49.509Z,12.40
2019-02-21T17:16:49.515Z,12.41
2019-02-21T17:17:49.579Z,12.37
2019-02-21T17:18:49.526Z,12.30
2019-02-21T17:19:49.531Z,12.26
2019-02-21T17:20:49.538Z,12.31
2019-02-21T17:21:49.540Z,12.25
2019-02-21T17:22:49.558Z,12.33
2019-02-21T17:23:49.575Z,12.29
2019-02-21T17:24:49.578Z,12.26
2019-02-21T17:25:49.577Z,12.30
2019-02-21T17:26:49.580Z,12.25
2019-02-21T17:27:49.592Z,12.29
2019-02-21T17:28:49.591Z,12.22
2019-02-21T17:29:49.591Z,12.21
2019-02-21T17:30:49.613Z,12.26
2019-02-21T17:31:49.648Z,12.23
2019-02-21T17:32:49.613Z,12.23
2019-02-21T17:33:49.629Z,12.18
2019-02-21T17:34:49.633Z,12.25
2019-02-21T17:35:49.650Z,12.21
2019-02-21T17:36:49.642Z,12.16
2019-02-21T17:37:49.661Z,12.11
2019-02-21T17:38:49.665Z,12.12
2019-02-21T17:39:49.665Z,12.19
2019-02-21T17:40:49.674Z,12.04
2019-02-21T17:41:49.682Z,12.05
2019-02-21T17:42:49.689Z,12.05
2019-02-21T17:43:49.706Z,12.03
2019-02-21T17:44:49.702Z,12.05
2019-02-21T17:45:49.716Z,12.03
2019-02-21T17:46:49.719Z,11.94
2019-02-21T17:47:49.725Z,12.05
2019-02-21T17:48:49.737Z,12.04
2019-02-21T17:49:49.734Z,12.00
2019-02-21T17:50:49.745Z,12.00
2019-02-21T17:51:49.747Z,11.87
2019-02-21T17:52:49.753Z,11.87
2019-02-21T17:53:49.750Z,11.81
2019-02-21T17:54:49.770Z,11.88
2019-02-21T17:55:49.779Z,11.75
2019-02-21T17:56:49.799Z,11.78
2019-02-21T17:57:49.788Z,11.81
2019-02-21T17:58:49.798Z,11.75
2019-02-21T17:59:49.808Z,11.70
2019-02-21T18:00:49.805Z,11.79
2019-02-21T18:01:49.814Z,11.69
2019-02-21T18:02:49.822Z,11.69
2019-02-21T18:03:49.837Z,11.70
2019-02-21T18:04:49.841Z,11.66
2019-02-21T18:05:49.852Z,11.69
2019-02-21T18:06:49.840Z,11.69
2019-02-21T18:07:49.850Z,11.67
2019-02-21T18:08:49.857Z,11.62
2019-02-21T18:09:49.863Z,11.66
2019-02-21T18:10:49.874Z,11.69
2019-02-21T18:11:49.892Z,11.53
2019-02-21T18:12:50.045Z,11.63
2019-02-21T18:13:49.901Z,11.60
2019-02-21T18:14:49.904Z,11.66
2019-02-21T18:15:49.899Z,11.67
2019-02-21T18:16:49.909Z,11.64
2019-02-21T18:17:49.917Z,11.60
2019-02-21T18:18:49.925Z,11.53
2019-02-21T18:19:49.931Z,11.53
2019-02-21T18:20:49.940Z,11.54
2019-02-21T18:21:49.953Z,11.57
2019-02-21T18:22:49.950Z,11.53
2019-02-21T18:23:49.954Z,11.53
2019-02-21T18:24:49.962Z,11.49
2019-02-21T18:25:49.967Z,11.53
2019-02-21T18:26:49.962Z,11.46
2019-02-21T18:27:49.978Z,11.49
2019-02-21T18:28:49.998Z,11.64
2019-02-21T18:29:50.005Z,11.56
2019-02-21T18:30:50.063Z,11.53
2019-02-21T18:31:50.849Z,11.46
2019-02-21T18:32:50.011Z,11.54
2019-02-21T18:33:50.037Z,11.45
2019-02-21T18:34:50.029Z,11.39
2019-02-21T18:35:50.038Z,11.53
2019-02-21T18:36:50.039Z,11.56
2019-02-21T18:37:50.045Z,11.53
2019-02-21T18:38:50.052Z,11.46
2019-02-21T18:39:50.062Z,11.33
2019-02-21T18:40:50.068Z,11.42
2019-02-21T18:41:50.067Z,11.45
2019-02-21T18:42:50.075Z,11.35
2019-02-21T18:43:50.076Z,11.39
2019-02-21T18:44:50.092Z,11.42
2019-02-21T18:45:50.096Z,11.33
2019-02-21T18:46:50.100Z,11.39
2019-02-21T18:47:50.106Z,11.38
2019-02-21T18:48:50.116Z,11.31
2019-02-21T18:49:50.157Z,11.33
2019-02-21T18:50:50.129Z,11.35
2019-02-21T18:51:50.226Z,11.33
2019-02-21T18:52:50.144Z,11.38
2019-02-21T18:53:50.139Z,11.36
2019-02-21T18:54:50.172Z,11.35
2019-02-21T18:55:50.170Z,11.33
2019-02-21T18:56:50.165Z,11.36
2019-02-21T18:57:50.174Z,11.36
2019-02-21T18:58:50.236Z,11.33
2019-02-21T18:59:50.187Z,11.30
2019-02-21T19:00:50.188Z,11.33
2019-02-21T19:01:50.197Z,11.35
2019-02-21T19:02:50.204Z,11.33
2019-02-21T19:03:50.211Z,11.35
2019-02-21T19:04:50.216Z,11.23
2019-02-21T19:05:50.221Z,11.26
2019-02-21T19:06:50.225Z,11.16
2019-02-21T19:07:58.313Z,11.24
2019-02-21T19:08:50.253Z,11.16
2019-02-21T19:09:50.251Z,11.20
2019-02-21T19:10:50.255Z,11.17
2019-02-21T19:11:50.260Z,11.13
2019-02-21T19:12:50.256Z,11.24
2019-02-21T19:13:50.274Z,11.16
2019-02-21T19:14:50.276Z,11.09
2019-02-21T19:15:50.286Z,11.05
2019-02-21T19:16:50.295Z,11.12
2019-02-21T19:17:50.304Z,11.06
2019-02-21T19:18:50.304Z,11.12
2019-02-21T19:19:50.320Z,11.11
2019-02-21T19:20:50.311Z,11.12
2019-02-21T19:21:50.324Z,11.12
2019-02-21T19:22:50.322Z,11.11
2019-02-21T19:23:50.332Z,11.03
2019-02-21T19:24:50.350Z,11.11
2019-02-21T19:25:50.346Z,11.05
2019-02-21T19:26:50.354Z,11.08
2019-02-21T19:27:50.360Z,11.21
2019-02-21T19:28:50.374Z,11.24
2019-02-21T19:29:50.371Z,11.35
2019-02-21T19:30:50.371Z,11.38
2019-02-21T19:31:50.394Z,11.38
2019-02-21T19:32:50.385Z,11.42
2019-02-21T19:33:50.392Z,11.48
2019-02-21T19:34:50.392Z,11.51
2019-02-21T19:35:50.410Z,11.48
2019-02-21T19:36:50.419Z,11.41
2019-02-21T19:37:50.469Z,11.39
2019-02-21T19:38:50.433Z,11.41
2019-02-21T19:39:50.440Z,11.33
2019-02-21T19:40:50.443Z,11.36
2019-02-21T19:41:50.442Z,11.35
2019-02-21T19:42:50.448Z,11.46
2019-02-21T19:43:50.456Z,11.39
2019-02-21T19:44:50.462Z,11.31
2019-02-21T19:45:50.470Z,11.39
2019-02-21T19:46:50.475Z,11.33
2019-02-21T19:47:50.497Z,11.42
2019-02-21T19:48:50.491Z,11.48
2019-02-21T19:49:50.496Z,11.41
2019-02-21T19:50:50.500Z,11.46
2019-02-21T19:51:50.503Z,11.38
2019-02-21T19:52:50.515Z,11.33
2019-02-21T19:53:50.536Z,11.36
2019-02-21T19:54:50.528Z,11.36
2019-02-21T19:55:50.555Z,11.49